Time;durP1;ratioP1;P1;durP2;ratioP2;P2;SDS_P1;SDS_P2;PMS_P1;PMS_P2;Temp;Humidity;BMP_temperature;BMP_pressure;BME280_temperature;BME280_humidity;BME280_pressure;Samples;Min_cycle;Max_cycle;Signal;HPM_P1;HPM_P2
2022/04/03 00:00:16;;;;;;;2.13;1.60;;;;;;;;;;5029299;28;20199;-80
2022/04/03 00:02:43;;;;;;;2.97;1.52;;;;;;;;;;5022978;28;20594;-80
2022/04/03 00:05:10;;;;;;;2.38;1.38;;;;;;;;;;5027098;28;20223;-81
2022/04/03 00:07:37;;;;;;;4.80;2.22;;;;;;;;;;5028140;28;20211;-80
2022/04/03 00:10:05;;;;;;;2.47;1.83;;;;;;;;;;5029120;28;20203;-81
2022/04/03 00:12:32;;;;;;;2.20;2.00;;;;;;;;;;5024525;28;20200;-79
2022/04/03 00:14:59;;;;;;;3.13;1.85;;;;;;;;;;5030345;28;20718;-80
2022/04/03 00:17:28;;;;;;;3.88;1.83;;;;;;;;;;5029950;28;20192;-80
2022/04/03 00:19:55;;;;;;;2.22;2.03;;;;;;;;;;5025936;28;20533;-80
2022/04/03 00:22:24;;;;;;;2.45;2.05;;;;;;;;;;5026219;28;20561;-79
2022/04/03 00:24:52;;;;;;;1.60;1.50;;;;;;;;;;5024463;28;20273;-79
2022/04/03 00:27:19;;;;;;;1.85;1.50;;;;;;;;;;5023228;28;20231;-78
2022/04/03 00:29:46;;;;;;;2.50;1.45;;;;;;;;;;5022897;28;20192;-79
2022/04/03 00:32:13;;;;;;;2.13;1.42;;;;;;;;;;5027302;28;20196;-80
2022/04/03 00:34:41;;;;;;;2.20;2.00;;;;;;;;;;5023110;28;20558;-83
2022/04/03 00:37:08;;;;;;;1.90;1.70;;;;;;;;;;5026688;28;20559;-84
2022/04/03 00:39:35;;;;;;;1.80;1.65;;;;;;;;;;5022468;28;20674;-83
2022/04/03 00:42:03;;;;;;;2.10;1.80;;;;;;;;;;5021719;28;20206;-81
2022/04/03 00:44:30;;;;;;;2.13;1.60;;;;;;;;;;5024510;28;20226;-80
2022/04/03 00:46:57;;;;;;;1.92;1.65;;;;;;;;;;5028582;28;20207;-78
2022/04/03 00:49:24;;;;;;;2.38;2.17;;;;;;;;;;5025725;28;20717;-77
2022/04/03 00:51:53;;;;;;;1.85;1.60;;;;;;;;;;5027844;28;20211;-78
2022/04/03 00:54:20;;;;;;;1.90;1.50;;;;;;;;;;5018457;28;20193;-78
2022/04/03 00:56:47;;;;;;;1.90;1.52;;;;;;;;;;5021522;28;20204;-78
2022/04/03 00:59:15;;;;;;;2.15;1.60;;;;;;;;;;5024735;28;20658;-80
2022/04/03 01:01:42;;;;;;;2.55;1.70;;;;;;;;;;5025550;28;20570;-79
2022/04/03 01:04:09;;;;;;;3.70;2.38;;;;;;;;;;5029013;28;20195;-79
2022/04/03 01:06:36;;;;;;;2.00;1.38;;;;;;;;;;5024963;28;20211;-77
2022/04/03 01:09:05;;;;;;;2.05;1.80;;;;;;;;;;5023251;28;20223;-80
2022/04/03 01:11:33;;;;;;;2.17;1.45;;;;;;;;;;5022891;28;20192;-82
2022/04/03 01:14:00;;;;;;;3.13;1.83;;;;;;;;;;5027444;28;21555;-81
2022/04/03 01:16:27;;;;;;;1.83;1.67;;;;;;;;;;5027946;28;20282;-80
2022/04/03 01:18:54;;;;;;;3.90;1.80;;;;;;;;;;5021466;28;20227;-80
2022/04/03 01:21:21;;;;;;;4.70;1.85;;;;;;;;;;5023003;28;20199;-82
2022/04/03 01:23:48;;;;;;;3.85;1.83;;;;;;;;;;5024031;28;20216;-84
2022/04/03 01:26:17;;;;;;;2.55;1.70;;;;;;;;;;5020663;28;20211;-82
2022/04/03 01:28:44;;;;;;;2.10;1.90;;;;;;;;;;5026166;28;20211;-83
2022/04/03 01:31:11;;;;;;;2.60;1.60;;;;;;;;;;5023054;28;20195;-81
2022/04/03 01:33:38;;;;;;;2.22;1.63;;;;;;;;;;5021983;28;20203;-82
2022/04/03 01:36:05;;;;;;;2.00;1.80;;;;;;;;;;5017851;28;20214;-81
2022/04/03 01:38:32;;;;;;;1.85;1.60;;;;;;;;;;5027079;28;20199;-82
2022/04/03 01:40:59;;;;;;;2.55;2.00;;;;;;;;;;5028693;28;20673;-82
2022/04/03 01:43:28;;;;;;;3.45;2.10;;;;;;;;;;5017120;28;20650;-84
2022/04/03 01:45:55;;;;;;;2.20;1.80;;;;;;;;;;5027456;28;20519;-83
2022/04/03 01:48:22;;;;;;;2.10;1.77;;;;;;;;;;5027467;28;20598;-83
2022/04/03 01:50:49;;;;;;;3.00;1.75;;;;;;;;;;5032513;28;20192;-84
2022/04/03 01:53:16;;;;;;;2.00;1.80;;;;;;;;;;5031451;28;20207;-82
2022/04/03 01:55:43;;;;;;;1.85;1.65;;;;;;;;;;5027404;28;20835;-80
2022/04/03 01:58:10;;;;;;;2.05;1.58;;;;;;;;;;5024148;28;20203;-80
2022/04/03 02:00:40;;;;;;;2.45;1.95;;;;;;;;;;5030912;28;20454;-80
2022/04/03 02:03:07;;;;;;;1.85;1.70;;;;;;;;;;5026940;28;20196;-80
2022/04/03 02:05:34;;;;;;;2.50;2.30;;;;;;;;;;5030918;28;20561;-81
2022/04/03 02:08:01;;;;;;;2.70;1.95;;;;;;;;;;5030981;28;20215;-79
2022/04/03 02:10:29;;;;;;;2.25;1.65;;;;;;;;;;5029517;28;20203;-80
2022/04/03 02:12:56;;;;;;;2.13;1.92;;;;;;;;;;5023230;28;20655;-80
2022/04/03 02:15:23;;;;;;;2.05;1.50;;;;;;;;;;5031369;28;20201;-81
2022/04/03 02:17:51;;;;;;;1.95;1.75;;;;;;;;;;5027035;28;20608;-81
2022/04/03 02:20:18;;;;;;;2.30;1.83;;;;;;;;;;5025748;28;20566;-80
2022/04/03 02:22:45;;;;;;;1.75;1.65;;;;;;;;;;5022285;28;20566;-80
2022/04/03 02:25:13;;;;;;;2.72;2.22;;;;;;;;;;5024699;28;20694;-80
2022/04/03 02:27:41;;;;;;;2.28;1.60;;;;;;;;;;5024332;28;20226;-79
2022/04/03 02:30:09;;;;;;;2.70;1.80;;;;;;;;;;5032263;28;20203;-80
2022/04/03 02:32:37;;;;;;;2.47;2.13;;;;;;;;;;5026390;28;20219;-80
2022/04/03 02:35:06;;;;;;;1.85;1.70;;;;;;;;;;5027441;28;20562;-79
2022/04/03 02:37:34;;;;;;;1.98;1.65;;;;;;;;;;5038168;28;20188;-79
2022/04/03 02:40:01;;;;;;;2.05;1.30;;;;;;;;;;5017185;28;20196;-80
2022/04/03 02:42:28;;;;;;;3.45;2.00;;;;;;;;;;5027642;28;20390;-79
2022/04/03 02:44:55;;;;;;;2.58;1.70;;;;;;;;;;5031169;28;20702;-78
2022/04/03 02:47:22;;;;;;;3.97;2.42;;;;;;;;;;5018429;28;20207;-78
2022/04/03 02:49:50;;;;;;;2.40;1.85;;;;;;;;;;5025672;28;20223;-80
2022/04/03 02:52:18;;;;;;;3.75;2.10;;;;;;;;;;5033467;28;20713;-78
2022/04/03 02:54:46;;;;;;;2.25;2.05;;;;;;;;;;5021226;28;20195;-78
2022/04/03 02:57:14;;;;;;;2.17;1.75;;;;;;;;;;5019324;28;20198;-76
2022/04/03 02:59:41;;;;;;;2.85;1.70;;;;;;;;;;5027755;28;20647;-79
2022/04/03 03:02:10;;;;;;;2.22;1.85;;;;;;;;;;5028003;28;20659;-77
2022/04/03 03:04:37;;;;;;;3.55;2.13;;;;;;;;;;5031341;28;20195;-76
2022/04/03 03:07:04;;;;;;;2.45;2.25;;;;;;;;;;5018435;28;20196;-77
2022/04/03 03:09:33;;;;;;;2.40;1.73;;;;;;;;;;5025671;28;20211;-76
2022/04/03 03:12:00;;;;;;;3.17;1.80;;;;;;;;;;5029020;28;20190;-77
2022/04/03 03:14:27;;;;;;;2.22;2.03;;;;;;;;;;5016133;28;20196;-76
2022/04/03 03:16:54;;;;;;;2.00;1.75;;;;;;;;;;5023463;28;20722;-77
2022/04/03 03:19:21;;;;;;;2.40;2.20;;;;;;;;;;5026495;28;20196;-77
2022/04/03 03:21:48;;;;;;;4.45;2.03;;;;;;;;;;5031000;28;20198;-76
2022/04/03 03:24:16;;;;;;;3.95;2.25;;;;;;;;;;5028652;28;20227;-76
2022/04/03 03:26:44;;;;;;;3.30;2.47;;;;;;;;;;5026511;28;20853;-77
2022/04/03 03:29:11;;;;;;;2.22;2.03;;;;;;;;;;5026151;28;20224;-77
2022/04/03 03:31:38;;;;;;;2.58;2.00;;;;;;;;;;5028661;28;20218;-77
2022/04/03 03:34:06;;;;;;;2.15;1.95;;;;;;;;;;5027454;28;20606;-77
2022/04/03 03:36:33;;;;;;;3.50;2.45;;;;;;;;;;5032458;28;20517;-78
2022/04/03 03:39:00;;;;;;;3.15;2.00;;;;;;;;;;5028008;28;20204;-78
2022/04/03 03:41:27;;;;;;;2.40;2.20;;;;;;;;;;5021384;28;20195;-77
2022/04/03 03:43:55;;;;;;;2.33;2.13;;;;;;;;;;5026382;28;20199;-77
2022/04/03 03:46:23;;;;;;;3.40;2.58;;;;;;;;;;5027213;28;20566;-77
2022/04/03 03:48:50;;;;;;;4.57;3.38;;;;;;;;;;5028098;28;20303;-77
2022/04/03 03:51:17;;;;;;;3.10;2.75;;;;;;;;;;5027265;28;20191;-77
2022/04/03 03:53:44;;;;;;;2.15;1.95;;;;;;;;;;5027505;28;20195;-77
2022/04/03 03:56:11;;;;;;;2.45;2.15;;;;;;;;;;5022029;28;20196;-77
2022/04/03 03:58:38;;;;;;;5.82;2.40;;;;;;;;;;5019805;28;20192;-76
2022/04/03 04:01:06;;;;;;;3.10;2.50;;;;;;;;;;5029871;28;20199;-77
2022/04/03 04:03:33;;;;;;;2.55;2.35;;;;;;;;;;5027819;28;20206;-77
2022/04/03 04:06:00;;;;;;;2.50;2.15;;;;;;;;;;5030078;28;20207;-79
2022/04/03 04:08:27;;;;;;;3.10;2.40;;;;;;;;;;5025055;28;20218;-78
2022/04/03 04:10:55;;;;;;;2.67;1.80;;;;;;;;;;5026372;28;20203;-80
2022/04/03 04:13:22;;;;;;;2.53;2.03;;;;;;;;;;5029291;28;20191;-80
2022/04/03 04:15:49;;;;;;;2.20;2.00;;;;;;;;;;5027849;28;20246;-80
2022/04/03 04:18:17;;;;;;;2.30;2.08;;;;;;;;;;5025822;28;20554;-82
2022/04/03 04:20:45;;;;;;;2.83;2.40;;;;;;;;;;5025612;28;20188;-84
2022/04/03 04:23:12;;;;;;;2.05;1.83;;;;;;;;;;5028012;28;20659;-83
2022/04/03 04:25:39;;;;;;;3.00;2.28;;;;;;;;;;5028093;28;20223;-84
2022/04/03 04:28:07;;;;;;;3.95;2.63;;;;;;;;;;5022230;28;20203;-83
2022/04/03 04:30:34;;;;;;;2.65;1.98;;;;;;;;;;5024626;28;20296;-84
2022/04/03 04:33:01;;;;;;;3.15;2.50;;;;;;;;;;5023126;28;20204;-83
2022/04/03 04:35:30;;;;;;;2.15;1.50;;;;;;;;;;5029523;28;20200;-83
2022/04/03 04:37:57;;;;;;;2.92;2.30;;;;;;;;;;5027602;28;20225;-83
2022/04/03 04:40:24;;;;;;;2.28;2.08;;;;;;;;;;5025165;28;20200;-82
2022/04/03 04:42:51;;;;;;;2.50;2.30;;;;;;;;;;5022227;28;20211;-82
2022/04/03 04:45:19;;;;;;;2.95;2.38;;;;;;;;;;5028013;28;20195;-83
2022/04/03 04:47:48;;;;;;;1.88;1.65;;;;;;;;;;5027589;28;20191;-82
2022/04/03 04:50:15;;;;;;;2.42;2.22;;;;;;;;;;5032513;28;20219;-83
2022/04/03 04:52:44;;;;;;;2.13;1.88;;;;;;;;;;5030084;28;20187;-82
2022/04/03 04:55:11;;;;;;;2.67;2.38;;;;;;;;;;5024948;28;20254;-80
2022/04/03 04:57:39;;;;;;;2.83;1.90;;;;;;;;;;5018234;28;20551;-81
2022/04/03 05:00:08;;;;;;;3.13;2.83;;;;;;;;;;5020634;28;20200;-82
2022/04/03 05:02:35;;;;;;;2.22;1.90;;;;;;;;;;5025897;28;20558;-81
2022/04/03 05:05:02;;;;;;;2.45;2.15;;;;;;;;;;5029049;28;20199;-79
2022/04/03 05:07:29;;;;;;;2.08;1.75;;;;;;;;;;5024923;28;20273;-79
2022/04/03 05:09:58;;;;;;;2.40;2.20;;;;;;;;;;5028857;28;20338;-81
2022/04/03 05:12:25;;;;;;;7.05;2.50;;;;;;;;;;5023415;28;20198;-79
2022/04/03 05:14:52;;;;;;;2.25;2.05;;;;;;;;;;5026282;28;20214;-83
2022/04/03 05:17:19;;;;;;;2.60;2.13;;;;;;;;;;5027466;28;20192;-81
2022/04/03 05:19:46;;;;;;;2.53;2.33;;;;;;;;;;5027522;28;20214;-82
2022/04/03 05:22:13;;;;;;;2.83;2.10;;;;;;;;;;5031503;28;20566;-81
2022/04/03 05:24:40;;;;;;;2.72;1.80;;;;;;;;;;5027776;28;20714;-80
2022/04/03 05:27:08;;;;;;;2.53;1.70;;;;;;;;;;5027173;28;20674;-81
2022/04/03 05:29:35;;;;;;;2.88;2.20;;;;;;;;;;5031743;28;20223;-79
2022/04/03 05:32:03;;;;;;;3.00;2.30;;;;;;;;;;5031409;28;20203;-79
2022/04/03 05:34:30;;;;;;;2.60;2.40;;;;;;;;;;5028531;28;20195;-79
2022/04/03 05:36:57;;;;;;;2.38;2.00;;;;;;;;;;5032711;28;20191;-81
2022/04/03 05:39:24;;;;;;;2.95;2.33;;;;;;;;;;5026504;28;20207;-81
2022/04/03 05:41:54;;;;;;;4.57;2.80;;;;;;;;;;5028023;28;20487;-78
2022/04/03 05:44:22;;;;;;;3.90;2.30;;;;;;;;;;5029949;28;20195;-79
2022/04/03 05:46:49;;;;;;;2.20;1.60;;;;;;;;;;5032263;28;20196;-78
2022/04/03 05:49:16;;;;;;;4.70;2.08;;;;;;;;;;5025523;28;20505;-80
2022/04/03 05:51:44;;;;;;;3.58;2.65;;;;;;;;;;5034278;28;20533;-80
2022/04/03 05:54:11;;;;;;;2.33;2.13;;;;;;;;;;5024162;28;20667;-81
2022/04/03 05:56:38;;;;;;;2.88;2.00;;;;;;;;;;5029419;28;20624;-80
2022/04/03 05:59:05;;;;;;;3.45;2.40;;;;;;;;;;5030022;28;20206;-79
2022/04/03 06:01:34;;;;;;;2.58;1.67;;;;;;;;;;5028138;28;20183;-80
2022/04/03 06:04:01;;;;;;;2.42;2.22;;;;;;;;;;5027332;28;20203;-82
2022/04/03 06:06:28;;;;;;;4.47;2.42;;;;;;;;;;5032157;28;20184;-82
2022/04/03 06:08:55;;;;;;;2.65;2.20;;;;;;;;;;5029499;28;20197;-81
2022/04/03 06:11:22;;;;;;;4.07;2.05;;;;;;;;;;5028835;28;20192;-82
2022/04/03 06:13:49;;;;;;;2.70;2.25;;;;;;;;;;5031113;28;20196;-81
2022/04/03 06:16:16;;;;;;;2.58;2.10;;;;;;;;;;5021711;28;20188;-80
2022/04/03 06:18:45;;;;;;;3.30;2.50;;;;;;;;;;5022676;28;20230;-81
2022/04/03 06:21:12;;;;;;;1.95;1.75;;;;;;;;;;5022314;28;20197;-81
2022/04/03 06:23:39;;;;;;;1.85;1.70;;;;;;;;;;5026668;28;20724;-81
2022/04/03 06:26:06;;;;;;;2.25;1.60;;;;;;;;;;5027297;28;20208;-82
2022/04/03 06:28:33;;;;;;;2.95;1.80;;;;;;;;;;5031770;28;20570;-82
2022/04/03 06:31:00;;;;;;;2.33;1.70;;;;;;;;;;5028868;28;20578;-82
2022/04/03 06:33:28;;;;;;;2.13;1.85;;;;;;;;;;5030034;28;20214;-82
2022/04/03 06:35:57;;;;;;;1.85;1.65;;;;;;;;;;5032553;28;20191;-84
2022/04/03 06:38:24;;;;;;;2.15;1.95;;;;;;;;;;5024182;28;20199;-80
2022/04/03 06:40:52;;;;;;;2.15;1.85;;;;;;;;;;5026543;28;20203;-80
2022/04/03 06:43:19;;;;;;;1.70;1.60;;;;;;;;;;5027199;28;20199;-80
2022/04/03 06:45:46;;;;;;;1.70;1.38;;;;;;;;;;5031013;28;20192;-80
2022/04/03 06:48:13;;;;;;;1.50;1.35;;;;;;;;;;5026065;28;20709;-79
2022/04/03 06:50:41;;;;;;;3.00;2.03;;;;;;;;;;5026868;28;20211;-79
2022/04/03 06:53:09;;;;;;;2.10;1.90;;;;;;;;;;5017846;28;20651;-79
2022/04/03 06:55:36;;;;;;;1.83;1.73;;;;;;;;;;5027681;28;20199;-80
2022/04/03 06:58:04;;;;;;;1.90;1.52;;;;;;;;;;5027665;28;20217;-80
2022/04/03 07:00:31;;;;;;;2.35;2.15;;;;;;;;;;5023958;28;20202;-80
2022/04/03 07:02:58;;;;;;;1.75;1.40;;;;;;;;;;5021555;28;20203;-79
2022/04/03 07:05:25;;;;;;;1.85;1.70;;;;;;;;;;5025923;28;20195;-80
2022/04/03 07:07:53;;;;;;;1.83;1.73;;;;;;;;;;5029839;28;20196;-80
2022/04/03 07:10:21;;;;;;;1.75;1.65;;;;;;;;;;5027122;28;20689;-80
2022/04/03 07:12:48;;;;;;;1.60;1.50;;;;;;;;;;5026551;28;20203;-80
2022/04/03 07:15:15;;;;;;;4.45;2.85;;;;;;;;;;5028308;28;20196;-80
2022/04/03 07:17:43;;;;;;;2.10;1.75;;;;;;;;;;5026761;28;20204;-80
2022/04/03 07:20:13;;;;;;;2.00;1.80;;;;;;;;;;5029810;28;20566;-81
2022/04/03 07:22:40;;;;;;;4.75;1.70;;;;;;;;;;5028675;28;20663;-80
2022/04/03 07:25:07;;;;;;;4.28;2.15;;;;;;;;;;5025946;28;20821;-78
2022/04/03 07:27:36;;;;;;;2.03;1.52;;;;;;;;;;5025378;28;20285;-78
2022/04/03 07:30:03;;;;;;;2.13;1.92;;;;;;;;;;5028233;28;20215;-78
2022/04/03 07:32:30;;;;;;;2.22;2.03;;;;;;;;;;5029596;28;20196;-78
2022/04/03 07:34:57;;;;;;;3.08;1.52;;;;;;;;;;5029349;28;20202;-77
2022/04/03 07:37:24;;;;;;;1.80;1.20;;;;;;;;;;5030975;28;20195;-80
2022/04/03 07:39:51;;;;;;;1.90;1.70;;;;;;;;;;5025019;28;20205;-80
2022/04/03 07:42:18;;;;;;;1.73;1.63;;;;;;;;;;5018350;28;20200;-81
2022/04/03 07:44:47;;;;;;;2.05;1.83;;;;;;;;;;5016581;28;20202;-81
2022/04/03 07:47:14;;;;;;;3.83;1.80;;;;;;;;;;5029038;28;20196;-79
2022/04/03 07:49:41;;;;;;;2.05;1.50;;;;;;;;;;5025449;28;20302;-86
2022/04/03 07:52:09;;;;;;;1.50;1.40;;;;;;;;;;5028263;28;20449;-87
2022/04/03 07:54:38;;;;;;;2.63;1.35;;;;;;;;;;5026515;28;20219;-85
2022/04/03 07:57:06;;;;;;;1.75;1.65;;;;;;;;;;5021182;28;20227;-86
2022/04/03 07:59:33;;;;;;;1.92;1.73;;;;;;;;;;5020571;28;20187;-80
2022/04/03 08:02:01;;;;;;;1.65;1.55;;;;;;;;;;5029897;28;20721;-80
2022/04/03 08:04:29;;;;;;;1.58;1.25;;;;;;;;;;5021088;28;20211;-80
2022/04/03 08:06:56;;;;;;;1.80;1.65;;;;;;;;;;5031231;28;20207;-80
2022/04/03 08:09:23;;;;;;;1.27;1.10;;;;;;;;;;5029520;28;20191;-80
2022/04/03 08:11:50;;;;;;;3.05;1.52;;;;;;;;;;5026442;28;20274;-81
2022/04/03 08:14:18;;;;;;;2.60;1.30;;;;;;;;;;5028401;28;20199;-80
2022/04/03 08:16:45;;;;;;;2.20;1.08;;;;;;;;;;5028333;28;20219;-79
2022/04/03 08:19:14;;;;;;;2.03;1.48;;;;;;;;;;5016349;28;20195;-80
2022/04/03 08:21:41;;;;;;;1.70;1.30;;;;;;;;;;5017420;28;20559;-80
2022/04/03 08:24:08;;;;;;;1.40;1.30;;;;;;;;;;5028769;28;20729;-80
2022/04/03 08:26:36;;;;;;;1.65;1.23;;;;;;;;;;5022742;28;20654;-80
2022/04/03 08:29:03;;;;;;;2.00;1.40;;;;;;;;;;5031407;28;20187;-80
2022/04/03 08:31:30;;;;;;;1.35;1.25;;;;;;;;;;5027621;28;20212;-80
2022/04/03 08:33:57;;;;;;;2.85;1.15;;;;;;;;;;5027259;28;20200;-80
2022/04/03 08:36:26;;;;;;;1.83;1.40;;;;;;;;;;5017406;28;20200;-80
2022/04/03 08:38:54;;;;;;;2.33;1.50;;;;;;;;;;5025031;28;20195;-80
2022/04/03 08:41:21;;;;;;;2.03;1.30;;;;;;;;;;5026492;28;20657;-80
2022/04/03 08:43:48;;;;;;;1.10;1.00;;;;;;;;;;5016062;28;20200;-80
2022/04/03 08:46:15;;;;;;;1.50;1.02;;;;;;;;;;5023140;28;20198;-80
2022/04/03 08:48:46;;;;;;;1.77;1.40;;;;;;;;;;5026620;28;20196;-80
2022/04/03 08:51:13;;;;;;;2.05;1.50;;;;;;;;;;5019659;28;20220;-80
2022/04/03 08:53:43;;;;;;;2.20;1.50;;;;;;;;;;5027381;28;20202;-80
2022/04/03 08:56:10;;;;;;;4.45;1.20;;;;;;;;;;5028978;28;20219;-80
2022/04/03 08:58:37;;;;;;;4.82;1.40;;;;;;;;;;5029805;28;20196;-80
2022/04/03 09:01:04;;;;;;;2.78;1.40;;;;;;;;;;5028345;28;20207;-80
2022/04/03 09:03:31;;;;;;;1.33;1.08;;;;;;;;;;5031630;28;20191;-80
2022/04/03 09:06:12;;;;;;;2.05;1.10;;;;;;;;;;5029661;28;20192;-80
2022/04/03 09:08:39;;;;;;;1.40;1.10;;;;;;;;;;5033815;28;20652;-85
2022/04/03 09:11:08;;;;;;;2.65;1.08;;;;;;;;;;5033066;28;21003;-85
2022/04/03 09:13:35;;;;;;;1.63;1.30;;;;;;;;;;5026026;28;20203;-85
2022/04/03 09:16:02;;;;;;;1.17;1.08;;;;;;;;;;5026037;28;20199;-86
2022/04/03 09:18:47;;;;;;;1.45;1.10;;;;;;;;;;5026083;28;20188;-84
2022/04/03 09:21:21;;;;;;;1.27;1.17;;;;;;;;;;5028259;28;20666;-80
2022/04/03 09:23:59;;;;;;;1.77;1.48;;;;;;;;;;5027643;28;20224;-77
2022/04/03 09:26:27;;;;;;;1.63;1.25;;;;;;;;;;5024984;28;20221;-83
2022/04/03 09:29:06;;;;;;;3.20;1.60;;;;;;;;;;5033689;28;20199;-84
2022/04/03 09:31:33;;;;;;;2.13;1.55;;;;;;;;;;5032838;28;20215;-84
2022/04/03 09:34:01;;;;;;;2.97;1.40;;;;;;;;;;5032914;28;20195;-84
2022/04/03 09:36:30;;;;;;;2.45;1.13;;;;;;;;;;5035774;28;20226;-83
2022/04/03 09:39:06;;;;;;;1.50;1.17;;;;;;;;;;5033034;28;20445;-83
2022/04/03 09:41:35;;;;;;;1.20;1.10;;;;;;;;;;5035635;28;20203;-82
2022/04/03 09:44:15;;;;;;;1.88;1.40;;;;;;;;;;5036571;28;20202;-83
2022/04/03 09:46:42;;;;;;;1.40;1.15;;;;;;;;;;5033676;28;20183;-82
2022/04/03 09:49:22;;;;;;;1.85;1.50;;;;;;;;;;5035772;28;20675;-82
2022/04/03 09:51:50;;;;;;;1.73;1.20;;;;;;;;;;5036111;28;20284;-83
2022/04/03 09:54:19;;;;;;;1.40;1.20;;;;;;;;;;5033115;28;20194;-80
2022/04/03 09:56:47;;;;;;;1.60;1.10;;;;;;;;;;5032427;28;20192;-80
2022/04/03 09:59:15;;;;;;;1.50;1.20;;;;;;;;;;5022035;28;20283;-81
2022/04/03 10:01:43;;;;;;;2.00;1.10;;;;;;;;;;5030339;28;20670;-80
2022/04/03 10:04:11;;;;;;;1.42;1.00;;;;;;;;;;5027021;28;20573;-80
2022/04/03 10:06:39;;;;;;;2.20;1.65;;;;;;;;;;5033902;28;20279;-84
2022/04/03 10:09:07;;;;;;;2.00;1.40;;;;;;;;;;5033307;28;20208;-79
2022/04/03 10:11:34;;;;;;;1.10;0.90;;;;;;;;;;5031752;28;20748;-81
2022/04/03 10:14:03;;;;;;;1.48;1.20;;;;;;;;;;5027617;28;20567;-81
2022/04/03 10:16:30;;;;;;;1.75;1.50;;;;;;;;;;5029159;28;20195;-80
2022/04/03 10:18:58;;;;;;;1.85;1.50;;;;;;;;;;5029286;28;20200;-80
2022/04/03 10:21:28;;;;;;;2.47;1.88;;;;;;;;;;5031451;28;20196;-81
2022/04/03 10:23:57;;;;;;;2.15;1.27;;;;;;;;;;5034015;28;20609;-80
2022/04/03 10:26:25;;;;;;;1.00;0.90;;;;;;;;;;5032835;28;20755;-80
2022/04/03 10:28:55;;;;;;;2.00;1.10;;;;;;;;;;5026217;28;20200;-80
2022/04/03 10:31:24;;;;;;;1.48;1.10;;;;;;;;;;5028539;28;20223;-80
2022/04/03 10:33:52;;;;;;;1.50;1.20;;;;;;;;;;5028279;28;20188;-80
2022/04/03 10:36:25;;;;;;;1.85;1.20;;;;;;;;;;5033529;28;20192;-71
2022/04/03 10:38:57;;;;;;;1.77;1.20;;;;;;;;;;5031323;28;20191;-77
2022/04/03 10:41:29;;;;;;;1.60;1.08;;;;;;;;;;5021216;28;20431;-78
2022/04/03 10:44:11;;;;;;;3.15;1.50;;;;;;;;;;5025313;28;20211;-81
2022/04/03 10:46:53;;;;;;;1.50;1.00;;;;;;;;;;5026596;28;20199;-79
2022/04/03 10:49:29;;;;;;;1.45;1.05;;;;;;;;;;5027910;28;20590;-79
2022/04/03 10:51:58;;;;;;;1.95;1.20;;;;;;;;;;5025240;28;20220;-76
2022/04/03 10:54:30;;;;;;;1.55;1.20;;;;;;;;;;5027679;28;20227;-75
2022/04/03 10:57:12;;;;;;;4.20;1.40;;;;;;;;;;5023148;28;20261;-76
2022/04/03 10:59:39;;;;;;;2.05;1.73;;;;;;;;;;5021911;28;20242;-76
2022/04/03 11:02:13;;;;;;;1.27;1.17;;;;;;;;;;5025951;28;20207;-77
2022/04/03 11:04:42;;;;;;;1.48;1.10;;;;;;;;;;5020990;28;20210;-76
2022/04/03 11:07:17;;;;;;;4.95;0.95;;;;;;;;;;5032537;28;20287;-76
2022/04/03 11:09:48;;;;;;;1.00;0.88;;;;;;;;;;5026597;28;20195;-76
2022/04/03 11:12:15;;;;;;;1.00;0.85;;;;;;;;;;5015757;28;20873;-76
2022/04/03 11:14:58;;;;;;;1.63;1.20;;;;;;;;;;5020992;28;20208;-77
2022/04/03 11:17:44;;;;;;;2.75;0.90;;;;;;;;;;5024127;28;20195;-76
2022/04/03 11:20:29;;;;;;;1.52;0.95;;;;;;;;;;5028260;28;20191;-75
2022/04/03 11:22:56;;;;;;;1.42;1.00;;;;;;;;;;5026956;28;20204;-75
2022/04/03 11:25:23;;;;;;;1.10;0.85;;;;;;;;;;5026466;28;20223;-76
2022/04/03 11:27:51;;;;;;;1.23;1.05;;;;;;;;;;5024707;28;20195;-76
2022/04/03 11:30:19;;;;;;;1.38;1.02;;;;;;;;;;5026610;28;20195;-76
2022/04/03 11:32:46;;;;;;;1.13;0.80;;;;;;;;;;5023285;28;20231;-76
2022/04/03 11:35:14;;;;;;;1.30;1.00;;;;;;;;;;5025949;28;20196;-76
2022/04/03 11:37:44;;;;;;;1.70;1.33;;;;;;;;;;5019907;28;20195;-75
2022/04/03 11:40:11;;;;;;;1.42;1.00;;;;;;;;;;5020854;28;20206;-76
2022/04/03 11:42:38;;;;;;;1.50;0.90;;;;;;;;;;5022940;28;20196;-76
2022/04/03 11:45:07;;;;;;;2.20;1.17;;;;;;;;;;5031318;28;20195;-76
2022/04/03 11:47:35;;;;;;;1.67;0.90;;;;;;;;;;5025625;28;20219;-76
2022/04/03 11:50:06;;;;;;;1.20;1.00;;;;;;;;;;5028901;28;20203;-76
2022/04/03 11:52:38;;;;;;;1.00;0.90;;;;;;;;;;5027618;28;20211;-76
2022/04/03 11:55:09;;;;;;;1.13;0.82;;;;;;;;;;5028242;28;20291;-77
2022/04/03 11:57:36;;;;;;;1.20;1.10;;;;;;;;;;5023109;28;20206;-76
2022/04/03 12:00:04;;;;;;;1.20;1.00;;;;;;;;;;5024805;28;20674;-76
2022/04/03 12:02:31;;;;;;;0.90;0.73;;;;;;;;;;5025785;28;20226;-78
2022/04/03 12:04:58;;;;;;;1.60;1.30;;;;;;;;;;5025799;28;20210;-75
2022/04/03 12:07:25;;;;;;;1.73;0.80;;;;;;;;;;5025320;28;20204;-74
2022/04/03 12:09:54;;;;;;;1.00;0.80;;;;;;;;;;5026076;28;20211;-75
2022/04/03 12:12:24;;;;;;;2.45;0.93;;;;;;;;;;5026945;28;20223;-77
2022/04/03 12:14:51;;;;;;;1.10;0.90;;;;;;;;;;5021044;28;20195;-75
2022/04/03 12:17:18;;;;;;;3.17;1.00;;;;;;;;;;5025703;28;20206;-77
2022/04/03 12:19:47;;;;;;;1.40;1.00;;;;;;;;;;5026239;28;20199;-75
2022/04/03 12:22:15;;;;;;;1.10;0.93;;;;;;;;;;5021204;28;20292;-75
2022/04/03 12:24:43;;;;;;;1.00;0.90;;;;;;;;;;5025024;28;20444;-76
2022/04/03 12:27:18;;;;;;;1.10;0.90;;;;;;;;;;5022166;28;20225;-75
2022/04/03 12:29:46;;;;;;;1.58;1.00;;;;;;;;;;5024389;28;20239;-75
2022/04/03 12:32:15;;;;;;;1.40;1.10;;;;;;;;;;5024977;28;20699;-75
2022/04/03 12:34:42;;;;;;;1.85;1.20;;;;;;;;;;5025293;28;20258;-76
2022/04/03 12:37:10;;;;;;;1.77;1.08;;;;;;;;;;5027430;28;20503;-76
2022/04/03 12:39:38;;;;;;;1.77;1.10;;;;;;;;;;5027611;28;20195;-77
2022/04/03 12:42:14;;;;;;;1.58;0.88;;;;;;;;;;5022231;28;20203;-76
2022/04/03 12:44:42;;;;;;;1.65;1.00;;;;;;;;;;5028237;28;20195;-77
2022/04/03 12:47:13;;;;;;;1.50;0.95;;;;;;;;;;5026954;28;20280;-75
2022/04/03 12:49:41;;;;;;;1.80;0.90;;;;;;;;;;5023609;28;20457;-76
2022/04/03 12:52:08;;;;;;;0.90;0.70;;;;;;;;;;5027530;28;20226;-76
2022/04/03 12:54:42;;;;;;;1.13;0.95;;;;;;;;;;5027311;28;20207;-76
2022/04/03 13:00:08;;;;;;;1.67;1.20;;;;;;;;;;5024321;28;20265;-76
2022/04/03 13:02:39;;;;;;;1.30;1.20;;;;;;;;;;5024348;28;20678;-75
2022/04/03 13:05:06;;;;;;;2.25;0.88;;;;;;;;;;5025430;28;20237;-76
2022/04/03 13:07:33;;;;;;;1.23;1.00;;;;;;;;;;5025527;28;20206;-76
2022/04/03 13:10:00;;;;;;;0.90;0.70;;;;;;;;;;5023696;28;20199;-76
2022/04/03 13:12:29;;;;;;;1.45;1.25;;;;;;;;;;5018337;28;20220;-76
2022/04/03 13:14:59;;;;;;;1.05;0.93;;;;;;;;;;5027848;28;20208;-77
2022/04/03 13:17:27;;;;;;;1.33;1.17;;;;;;;;;;5027499;28;20222;-76
2022/04/03 13:19:54;;;;;;;1.25;0.80;;;;;;;;;;5018656;28;20272;-76
2022/04/03 13:22:21;;;;;;;1.85;0.90;;;;;;;;;;5027953;28;20576;-77
2022/04/03 13:24:48;;;;;;;1.30;0.90;;;;;;;;;;5025349;28;20212;-76
2022/04/03 13:27:16;;;;;;;1.85;1.30;;;;;;;;;;5023138;28;20562;-75
2022/04/03 13:29:44;;;;;;;1.30;1.15;;;;;;;;;;5021714;28;20199;-76
2022/04/03 13:32:11;;;;;;;2.65;1.00;;;;;;;;;;5025249;28;20220;-76
2022/04/03 13:34:38;;;;;;;1.00;0.80;;;;;;;;;;5020018;28;20211;-76
2022/04/03 13:37:05;;;;;;;1.20;0.98;;;;;;;;;;5028335;28;20207;-76
2022/04/03 13:39:32;;;;;;;1.85;1.10;;;;;;;;;;5036667;28;20199;-77
2022/04/03 13:42:03;;;;;;;1.65;0.98;;;;;;;;;;5032270;28;20213;-76
2022/04/03 13:44:30;;;;;;;1.20;0.88;;;;;;;;;;5026754;28;20198;-76
2022/04/03 13:46:58;;;;;;;1.50;1.05;;;;;;;;;;5028273;28;20211;-75
2022/04/03 13:49:25;;;;;;;1.10;0.88;;;;;;;;;;5026913;28;20207;-76
2022/04/03 13:51:53;;;;;;;1.35;1.08;;;;;;;;;;5029816;28;20249;-76
2022/04/03 13:54:20;;;;;;;1.00;0.73;;;;;;;;;;5030408;28;20211;-76
2022/04/03 13:56:47;;;;;;;2.30;1.10;;;;;;;;;;5028201;28;20214;-77
2022/04/03 13:59:14;;;;;;;1.23;1.13;;;;;;;;;;5030227;28;20669;-73
2022/04/03 14:01:41;;;;;;;1.55;0.95;;;;;;;;;;5030046;28;20199;-73
2022/04/03 14:04:10;;;;;;;1.77;0.95;;;;;;;;;;5027539;28;20287;-74
2022/04/03 14:06:37;;;;;;;1.10;1.00;;;;;;;;;;5027853;28;20670;-73
2022/04/03 14:09:05;;;;;;;1.35;1.10;;;;;;;;;;5030900;28;20204;-73
2022/04/03 14:11:33;;;;;;;1.00;0.80;;;;;;;;;;5026051;28;20224;-73
2022/04/03 14:14:00;;;;;;;1.15;0.80;;;;;;;;;;5022698;28;20211;-73
2022/04/03 14:16:27;;;;;;;3.17;1.35;;;;;;;;;;5027513;28;20196;-73
2022/04/03 14:18:54;;;;;;;2.15;1.05;;;;;;;;;;5020019;28;20192;-72
2022/04/03 14:21:25;;;;;;;1.13;0.77;;;;;;;;;;5030755;28;20226;-72
2022/04/03 14:23:52;;;;;;;1.73;1.17;;;;;;;;;;5027064;28;20338;-72
2022/04/03 14:26:19;;;;;;;2.10;1.10;;;;;;;;;;5029389;28;20207;-74
2022/04/03 14:28:47;;;;;;;1.10;0.80;;;;;;;;;;5029707;28;20203;-74
2022/04/03 14:31:15;;;;;;;1.10;1.00;;;;;;;;;;5028166;28;20210;-78
2022/04/03 14:33:42;;;;;;;1.20;0.93;;;;;;;;;;5026692;28;20231;-77
2022/04/03 14:36:10;;;;;;;1.85;1.10;;;;;;;;;;5014282;28;20215;-76
2022/04/03 14:38:39;;;;;;;1.33;0.93;;;;;;;;;;5026485;28;20202;-77
2022/04/03 14:41:06;;;;;;;1.10;1.00;;;;;;;;;;5029755;28;20214;-77
2022/04/03 14:43:33;;;;;;;1.98;1.13;;;;;;;;;;5033139;28;20200;-75
2022/04/03 14:46:01;;;;;;;1.48;1.17;;;;;;;;;;5027651;28;20203;-76
2022/04/03 14:48:28;;;;;;;1.10;0.90;;;;;;;;;;5028380;28;20195;-77
2022/04/03 14:50:55;;;;;;;1.02;0.90;;;;;;;;;;5032425;28;20199;-76